Flight Track Log - Related Links

Times and Time Zones

All times are in EDT time to prevent confusion due to time zone crossing. See the SWA2353 flight status page for this flight to view local times or setup timezone preferences in your user account.

Time Position Orientation Groundspeed Altitude Reporting Facility
EDT Latitude Longitude Course Direction KTS MPH feet Rate Location/Type
Fri 06:58:15 PM 39.8667 -75.2833 255° West 147 169 700  Level Philadelphia TRACON
Fri 06:59:39 PM 39.8500 -75.3667 255° West 215 247 4,100 2,619 Climbing Philadelphia TRACON
Fri 07:00:21 PM 39.8833 -75.4167 311° West 284 327 6,200 3,611 Climbing Philadelphia TRACON
Fri 07:01:27 PM 39.9667 -75.4500 343° North 288 331 10,600 2,667 Climbing Philadelphia TRACON
Fri 07:02:27 PM 40.0500 -75.4833 343° North 370 426 11,800 1,200 Climbing Philadelphia TRACON
Fri 07:03:17 PM 40.1200 -75.5183 339° North 387 445 12,800 919 Climbing New York Center
Fri 07:04:18 PM 40.2183 -75.5658 340° North 382 440 13,500 1,686 Climbing New York Center
Fri 07:05:18 PM 40.2892 -75.6633 314° West 366 421 16,200 1,736 Climbing New York Center
Fri 07:06:19 PM 40.3697 -75.7808 312° West 379 436 17,000 893 Climbing New York Center
Fri 07:07:19 PM 40.4358 -75.8919 308° West 390 449 18,000 1,950 Climbing New York Center
Fri 07:08:19 PM 40.4561 -76.0025 284° West 360 414 20,900 2,898 Climbing New York Center
Fri 07:09:17 PM 40.4753 -76.1322 281° West 360 414 23,700 2,390 Climbing New York Center
Fri 07:10:17 PM 40.4983 -76.2625 283° West 360 414 25,600 1,240 Climbing New York Center
Fri 07:11:18 PM 40.5158 -76.3811 281° West 365 420 26,200 1,180 Climbing New York Center
Fri 07:12:19 PM 40.5433 -76.5472 282° West 381 438 28,000 900 Climbing New York Center
Fri 07:13:18 PM 40.5736 -76.6892 286° West 388 447 28,000  Level New York Center
Fri 07:14:18 PM 40.6089 -76.8208 289° West 393 452 28,000  Level New York Center
Fri 07:15:19 PM 40.6456 -76.9553 290° West 393 452 28,000  Level New York Center
Fri 07:16:19 PM 40.6803 -77.0872 289° West 393 452 28,000  Level New York Center
Fri 07:17:19 PM 40.7167 -77.2219 290° West 393 452 28,000  Level New York Center
Fri 07:19:22 PM 40.7861 -77.4869 289° West 381 438 28,000  Level Cleveland Center
Fri 07:20:22 PM 40.8231 -77.6225 290° West 381 438 28,000  Level Cleveland Center
Fri 07:21:22 PM 40.8864 -77.7375 306° West 381 438 28,000  Level Cleveland Center
Fri 07:22:22 PM 40.9625 -77.8664 308° West 393 452 28,000  Level Cleveland Center
Fri 07:23:22 PM 41.0236 -77.9794 306° West 393 452 28,000  Level Cleveland Center
Fri 07:24:22 PM 41.0578 -78.1158 288° West 387 445 28,000 800 Level Cleveland Center
Fri 07:25:22 PM 41.0775 -78.2583 280° West 387 445 29,600 1,400 Climbing Cleveland Center
Fri 07:26:22 PM 41.0908 -78.4039 277° West 393 452 30,800 1,300 Climbing Cleveland Center
Fri 07:27:22 PM 41.1039 -78.5550 277° West 404 465 32,200 1,400 Climbing Cleveland Center
Fri 07:28:22 PM 41.1169 -78.7061 277° West 410 472 33,600 1,400 Climbing Cleveland Center
Fri 07:29:22 PM 41.1297 -78.8575 276° West 415 478 35,000 1,200 Climbing Cleveland Center
Fri 07:30:22 PM 41.1400 -78.9894 276° West 415 478 36,000 500 Climbing Cleveland Center
Fri 07:31:22 PM 41.1525 -79.1325 277° West 403 464 36,000  Level Cleveland Center
Fri 07:32:22 PM 41.1647 -79.2786 276° West 403 464 36,000  Level Cleveland Center
Fri 07:33:22 PM 41.1789 -79.4356 277° West 398 458 36,000  Level Cleveland Center
Fri 07:34:22 PM 41.1906 -79.5761 276° West 393 452 36,000  Level Cleveland Center
Fri 07:35:22 PM 41.2000 -79.7028 276° West 393 452 36,000  Level Cleveland Center
Fri 07:36:22 PM 41.2092 -79.8461 275° West 388 447 36,000  Level Cleveland Center
Fri 07:37:22 PM 41.2206 -79.9842 276° West 388 447 36,000  Level Cleveland Center
Fri 07:38:22 PM 41.2358 -80.1414 277° West 388 447 36,000  Level Cleveland Center
Fri 07:39:22 PM 41.2444 -80.2822 275° West 388 447 36,000  Level Cleveland Center
Fri 07:40:22 PM 41.2533 -80.4286 275° West 395 455 36,000  Level Cleveland Center
Fri 07:41:22 PM 41.2636 -80.5692 276° West 395 455 36,000  Level Cleveland Center
Fri 07:42:22 PM 41.2761 -80.7158 277° West 395 455 36,000  Level Cleveland Center
Fri 07:43:22 PM 41.2842 -80.8622 274° West 395 455 36,000  Level Cleveland Center
Fri 07:44:22 PM 41.2922 -80.9894 275° West 395 455 36,000  Level Cleveland Center
Fri 07:45:22 PM 41.3019 -81.1386 275° West 400 460 36,000  Level Cleveland Center
Fri 07:46:22 PM 41.3136 -81.2825 276° West 399 459 36,000  Level Cleveland Center
Fri 07:47:22 PM 41.3253 -81.4236 276° West 399 459 36,000  Level Cleveland Center
Fri 07:48:21 PM 41.3344 -81.5675 275° West 399 459 36,000  Level Cleveland Center
Fri 07:49:22 PM 41.3436 -81.7144 275° West 399 459 36,000  Level Cleveland Center
Fri 07:50:22 PM 41.3525 -81.8583 275° West 399 459 36,000  Level Cleveland Center
Fri 07:51:22 PM 41.3611 -82.0022 275° West 399 459 36,000  Level Cleveland Center
Fri 07:52:22 PM 41.3656 -82.1492 272° West 405 466 36,000  Level Cleveland Center
Fri 07:53:22 PM 41.3739 -82.2986 274° West 400 460 36,000  Level Cleveland Center
Fri 07:54:22 PM 41.3819 -82.4428 274° West 400 460 36,000  Level Cleveland Center
Fri 07:55:22 PM 41.3900 -82.5897 274° West 406 467 36,000  Level Cleveland Center
Fri 07:56:22 PM 41.3997 -82.7394 275° West 406 467 36,000  Level Cleveland Center
Fri 07:57:22 PM 41.4053 -82.8836 273° West 401 461 36,000  Level Cleveland Center
Fri 07:58:22 PM 41.4144 -83.0475 274° West 406 467 36,000  Level Cleveland Center
Fri 07:59:22 PM 41.4200 -83.1667 274° West 406 467 36,000  Level Cleveland Center
Fri 08:00:22 PM 41.4267 -83.3250 273° West 406 467 36,000  Level Cleveland Center
Fri 08:01:22 PM 41.4336 -83.4719 274° West 406 467 36,000  Level Cleveland Center
Fri 08:02:22 PM 41.4400 -83.6219 273° West 406 467 36,000 -400 Level Cleveland Center
Fri 08:03:22 PM 41.4464 -83.7717 273° West 406 467 35,200 -850 Descending Cleveland Center
Fri 08:04:22 PM 41.4525 -83.9217 273° West 406 467 34,300 -600 Descending Cleveland Center
Fri 08:05:22 PM 41.4586 -84.0689 273° West 406 467 34,000 -2,150 Descending Cleveland Center
Fri 08:06:22 PM 41.4644 -84.2133 273° West 406 467 30,000 -1,096 Descending Cleveland Center
Fri 08:08:39 PM 41.4806 -84.5528 274° West 402 463 30,400  Climbing Chicago Center
Fri 08:09:41 PM 41.4861 -84.6933 273° West 383 441 30,000 -194 Descending Chicago Center
Fri 08:10:43 PM 41.4908 -84.8339 273° West 380 437 30,000 -290 Level Chicago Center
Fri 08:11:45 PM 41.4964 -85.0014 273° West 378 435 29,400 -823 Descending Chicago Center
Fri 08:12:47 PM 41.5003 -85.1400 272° West 373 429 28,300 -1,008 Descending Chicago Center
Fri 08:13:50 PM 41.5047 -85.2797 272° West 373 429 27,300 -912 Descending Chicago Center
Fri 08:14:52 PM 41.5081 -85.4244 272° West 381 438 26,400 -919 Descending Chicago Center
Fri 08:15:54 PM 41.5136 -85.5764 273° West 399 459 25,400 -1,645 Descending Chicago Center
Fri 08:16:56 PM 41.5169 -85.7228 272° West 393 452 23,000 -2,371 Descending Chicago Center
Fri 08:17:58 PM 41.5206 -85.8628 272° West 379 436 20,500 -2,323 Descending Chicago Center
Fri 08:19:00 PM 41.5239 -85.9961 272° West 363 418 18,200 -2,516 Descending Chicago Center
Fri 08:20:02 PM 41.5242 -86.1539 270° West 355 409 15,300 -2,565 Descending Chicago Center
Fri 08:21:04 PM 41.5228 -86.2808 269° West 346 398 12,900 -2,081 Descending Chicago Center
Fri 08:22:06 PM 41.5231 -86.4058 270° West 340 391 11,000 -1,403 Descending Chicago Center
Fri 08:23:08 PM 41.5222 -86.5275 270° West 330 380 10,000 -484 Descending Chicago Center
Fri 08:24:10 PM 41.5203 -86.6478 269° West 327 376 10,000 -194 Level Chicago Center
Fri 08:25:12 PM 41.5203 -86.7631 270° West 303 349 9,600 -677 Descending Chicago Center
Fri 08:26:14 PM 41.5178 -86.8628 268° West 274 315 8,600 -1,065 Descending Chicago Center
Fri 08:27:16 PM 41.5172 -86.9811 270° West 268 308 7,400 -1,065 Descending Chicago Center
Fri 08:28:18 PM 41.5186 -87.0803 271° West 269 310 6,400 -816 Descending Chicago Center
Fri 08:29:21 PM 41.5461 -87.1678 293° West 259 298 5,700 -726 Descending Chicago Center
Fri 08:30:22 PM 41.5714 -87.2583 290° West 259 298 4,900 -744 Descending Chicago Center
Fri 08:31:22 PM 41.6000 -87.3667 289° West 259 298 4,200 -500 Descending Chicago TRACON
Fri 08:32:22 PM 41.6167 -87.4500 285° West 245 282 3,900 -105 Descending Chicago TRACON
Fri 08:33:16 PM 41.6500 -87.5167 304° West 214 246 4,000  Climbing Chicago TRACON
Fri 08:34:16 PM 41.6667 -87.5833 289° West 214 246 3,900 -667 Descending Chicago TRACON
Fri 08:35:22 PM 41.7167 -87.6500 315° West 192 221 2,600 -1,048 Descending Chicago TRACON
Fri 08:36:22 PM 41.7333 -87.6833 304° West 149 171 1,700 -762 Descending Chicago TRACON
Fri 08:37:28 PM 41.7667 -87.7333 312° West 120 138 1,000 -636 Descending Chicago TRACON
Fri 08:39:00 PM 41.7833 -87.7500 334° Northwest  Level FlightAware Approximate
Fri 08:46:00 PM 41.7860 -87.7524 334° Northwest  Level Estimated

Login

Don't have an account? Register now (free) for customized features, flight alerts, and more!